Terminal Aerodrome Forecast
Issued by NWS Boston, MA

Home | Current Version | Previous Version | Text Only | Print | Product List | Glossary On
Versions: 1 2 3 4 5 6 7 8 9 10 11 12 13 14 15
000
FTUS41 KBOX 252049 AAA
TAFORH
TAF AMD
KORH 252049Z 2521/2618 21007KT P6SM SCT045 OVC200
     FM260100 26006KT P6SM VCSH BKN100 OVC200
     FM260300 26006KT P6SM BKN200
     FM260500 26007KT 5SM BR SCT200
     FM261200 28009KT P6SM SKC=

USA.gov is the U.S. government's official web portal to all federal, state and local government web resources and services.